createdAt,value
2023-03-26T00:01:19.287Z,2.88
2023-03-26T00:03:47.534Z,2.83
2023-03-26T00:06:16.702Z,2.50
2023-03-26T00:08:51.328Z,2.72
2023-03-26T00:11:20.855Z,2.17
2023-03-26T00:13:48.703Z,2.45
2023-03-26T00:18:53.606Z,2.83
2023-03-26T00:21:29.602Z,1.88
2023-03-26T00:24:00.040Z,2.20
2023-03-26T00:26:31.234Z,2.38
2023-03-26T00:29:00.461Z,2.50
2023-03-26T00:31:27.885Z,2.65
2023-03-26T00:33:55.733Z,2.17
2023-03-26T00:36:25.442Z,2.88
2023-03-26T00:38:53.959Z,2.80
2023-03-26T00:41:25.969Z,3.40
2023-03-26T00:43:56.401Z,3.00
2023-03-26T00:46:24.770Z,3.22
2023-03-26T00:48:52.068Z,4.00
2023-03-26T00:51:20.654Z,3.50
2023-03-26T00:53:48.446Z,3.15
2023-03-26T00:56:16.002Z,3.45
2023-03-26T00:58:43.913Z,3.38
2023-03-26T01:01:15.153Z,3.90
2023-03-26T01:03:50.401Z,3.78
2023-03-26T01:06:32.848Z,3.50
2023-03-26T01:09:04.444Z,4.38
2023-03-26T01:11:32.833Z,4.00
2023-03-26T01:14:03.038Z,4.38
2023-03-26T01:16:34.169Z,3.72
2023-03-26T01:19:01.500Z,5.13
2023-03-26T01:21:30.453Z,4.32
2023-03-26T01:23:57.863Z,5.22
2023-03-26T01:26:34.116Z,4.50
2023-03-26T01:29:03.553Z,3.83
2023-03-26T01:31:39.541Z,5.25
2023-03-26T01:34:30.689Z,4.28
2023-03-26T01:37:07.076Z,5.70
2023-03-26T01:39:41.470Z,5.90
2023-03-26T01:42:12.138Z,4.95
2023-03-26T01:44:42.874Z,5.07
2023-03-26T01:47:10.451Z,5.68
2023-03-26T01:49:37.601Z,4.38
2023-03-26T01:52:07.603Z,4.75
2023-03-26T01:54:34.763Z,4.80
2023-03-26T01:57:20.948Z,4.80
2023-03-26T02:00:11.976Z,5.45
2023-03-26T02:02:45.432Z,6.13
2023-03-26T02:05:16.374Z,5.68
2023-03-26T02:07:52.613Z,4.38
2023-03-26T02:10:30.826Z,5.07
2023-03-26T02:12:59.308Z,4.50
2023-03-26T02:15:26.501Z,4.57
2023-03-26T02:17:56.651Z,4.75
2023-03-26T02:20:23.778Z,4.15
2023-03-26T02:22:50.918Z,4.45
2023-03-26T02:25:19.617Z,4.28
2023-03-26T02:27:47.625Z,4.15
2023-03-26T02:30:16.728Z,4.60
2023-03-26T02:32:44.156Z,5.10
2023-03-26T02:35:11.937Z,3.83
2023-03-26T02:37:39.526Z,4.97
2023-03-26T02:40:11.325Z,5.53
2023-03-26T02:42:38.721Z,4.57
2023-03-26T02:45:06.893Z,5.00
2023-03-26T02:47:34.095Z,5.80
2023-03-26T02:50:01.494Z,5.57
2023-03-26T02:52:28.688Z,5.45
2023-03-26T02:54:56.229Z,5.53
2023-03-26T02:57:23.972Z,5.38
2023-03-26T02:59:52.777Z,4.88
2023-03-26T03:02:24.337Z,5.38
2023-03-26T03:04:52.018Z,5.00
2023-03-26T03:07:20.303Z,5.65
2023-03-26T03:09:50.612Z,5.28
2023-03-26T03:12:17.712Z,5.28
2023-03-26T03:14:44.807Z,5.78
2023-03-26T03:17:12.030Z,6.22
2023-03-26T03:19:39.233Z,5.75
2023-03-26T03:22:06.378Z,5.85
2023-03-26T03:24:38.688Z,6.22
2023-03-26T03:27:06.015Z,6.13
2023-03-26T03:29:33.139Z,5.43
2023-03-26T03:32:00.285Z,5.93
2023-03-26T03:34:27.737Z,5.88
2023-03-26T03:36:55.026Z,6.88
2023-03-26T03:39:22.144Z,7.00
2023-03-26T03:41:50.060Z,6.18
2023-03-26T03:44:17.153Z,6.43
2023-03-26T03:46:44.581Z,6.32
2023-03-26T03:49:11.775Z,6.15
2023-03-26T03:51:38.922Z,6.63
2023-03-26T03:54:06.118Z,6.35
2023-03-26T03:56:33.292Z,6.78
2023-03-26T03:59:00.406Z,6.03
2023-03-26T04:01:30.721Z,6.90
2023-03-26T04:03:58.923Z,7.25
2023-03-26T04:06:26.376Z,7.30
2023-03-26T04:08:53.444Z,8.15
2023-03-26T04:11:20.678Z,7.40
2023-03-26T04:13:47.843Z,7.18
2023-03-26T04:16:15.312Z,6.97
2023-03-26T04:18:42.465Z,7.13
2023-03-26T04:21:09.530Z,7.93
2023-03-26T04:23:36.804Z,7.28
2023-03-26T04:26:05.917Z,6.55
2023-03-26T04:28:35.470Z,7.18
2023-03-26T04:31:06.315Z,7.43
2023-03-26T04:33:34.473Z,6.60
2023-03-26T04:36:03.231Z,7.05
2023-03-26T04:38:33.537Z,6.30
2023-03-26T04:41:03.312Z,6.88
2023-03-26T04:43:35.475Z,7.45
2023-03-26T04:46:05.700Z,7.05
2023-03-26T04:48:32.849Z,7.00
2023-03-26T04:51:00.392Z,6.32
2023-03-26T04:53:27.588Z,7.57
2023-03-26T04:55:57.769Z,7.78
2023-03-26T04:58:32.594Z,6.75
2023-03-26T05:01:09.833Z,6.78
2023-03-26T05:03:39.589Z,7.63
2023-03-26T05:06:06.984Z,8.30
2023-03-26T05:08:34.305Z,7.13
2023-03-26T05:11:01.620Z,7.15
2023-03-26T05:13:28.704Z,6.82
2023-03-26T05:15:56.107Z,6.80
2023-03-26T05:18:23.217Z,7.07
2023-03-26T05:20:50.673Z,6.70
2023-03-26T05:23:17.759Z,6.57
2023-03-26T05:25:44.977Z,6.88
2023-03-26T05:28:12.149Z,7.25
2023-03-26T05:30:39.506Z,6.30
2023-03-26T05:33:07.002Z,6.85
2023-03-26T05:35:34.262Z,7.38
2023-03-26T05:38:01.717Z,6.32
2023-03-26T05:40:28.864Z,7.00
2023-03-26T05:42:56.299Z,7.20
2023-03-26T05:45:23.523Z,6.38
2023-03-26T05:47:54.184Z,6.70
2023-03-26T05:50:21.433Z,6.50
2023-03-26T05:52:48.532Z,6.70
2023-03-26T05:55:16.210Z,6.53
2023-03-26T05:57:43.344Z,6.32
2023-03-26T06:00:15.045Z,6.20
2023-03-26T06:02:42.902Z,6.50
2023-03-26T06:05:10.334Z,6.15
2023-03-26T06:07:37.529Z,6.60
2023-03-26T06:10:04.917Z,6.38
2023-03-26T06:12:32.320Z,6.05
2023-03-26T06:14:59.468Z,6.25
2023-03-26T06:17:26.765Z,5.55
2023-03-26T06:19:54.105Z,6.43
2023-03-26T06:22:21.407Z,6.07
2023-03-26T06:24:48.559Z,6.53
2023-03-26T06:27:15.708Z,6.63
2023-03-26T06:29:42.803Z,7.10
2023-03-26T06:32:19.679Z,6.07
2023-03-26T06:34:47.571Z,6.95
2023-03-26T06:37:14.800Z,6.60
2023-03-26T06:39:42.086Z,6.45
2023-03-26T06:42:09.311Z,7.43
2023-03-26T06:44:36.673Z,6.40
2023-03-26T06:47:03.918Z,7.15
2023-03-26T06:49:31.474Z,6.47
2023-03-26T06:51:58.726Z,6.70
2023-03-26T06:54:27.525Z,6.47
2023-03-26T06:56:55.649Z,6.63
2023-03-26T06:59:22.904Z,6.60
2023-03-26T07:01:50.165Z,7.50
2023-03-26T07:04:17.431Z,6.80
2023-03-26T07:06:44.742Z,6.20
2023-03-26T07:09:12.009Z,5.10
2023-03-26T07:11:39.334Z,6.95
2023-03-26T07:14:07.908Z,6.68
2023-03-26T07:16:35.513Z,6.20
2023-03-26T07:19:02.783Z,6.00
2023-03-26T07:21:30.136Z,6.13
2023-03-26T07:23:57.445Z,4.90
2023-03-26T07:26:24.789Z,5.32
2023-03-26T07:29:05.012Z,6.25
2023-03-26T07:31:43.016Z,5.93
2023-03-26T07:34:35.992Z,6.63
2023-03-26T07:37:06.881Z,4.97
2023-03-26T07:39:34.158Z,5.40
2023-03-26T07:42:01.630Z,5.18
2023-03-26T07:44:35.656Z,5.65
2023-03-26T07:47:04.919Z,4.43
2023-03-26T07:49:32.763Z,4.97
2023-03-26T07:52:01.370Z,4.28
2023-03-26T07:54:28.729Z,4.82
2023-03-26T07:56:59.127Z,3.67
2023-03-26T07:59:29.901Z,4.95
2023-03-26T08:02:16.594Z,4.03
2023-03-26T08:04:51.558Z,5.10
2023-03-26T08:09:52.065Z,4.65
2023-03-26T08:12:27.802Z,4.95
2023-03-26T08:15:05.149Z,7.78
2023-03-26T08:17:32.863Z,6.72
2023-03-26T08:20:23.307Z,5.22
2023-03-26T08:22:54.308Z,6.13
2023-03-26T08:25:34.811Z,5.97
2023-03-26T08:28:20.111Z,6.28
2023-03-26T08:30:47.467Z,10.73
2023-03-26T08:33:21.904Z,7.18
2023-03-26T08:35:49.980Z,6.05
2023-03-26T08:38:18.533Z,6.43
2023-03-26T08:41:04.500Z,7.30
2023-03-26T08:43:38.622Z,6.68
2023-03-26T08:46:13.427Z,7.88
2023-03-26T08:48:46.490Z,6.30
2023-03-26T08:51:19.501Z,6.40
2023-03-26T08:54:12.970Z,7.05
2023-03-26T08:59:26.244Z,6.93
2023-03-26T09:02:00.795Z,7.35
2023-03-26T09:04:47.869Z,7.38
2023-03-26T09:07:15.029Z,6.30
2023-03-26T09:09:42.140Z,8.13
2023-03-26T09:12:18.544Z,7.18
2023-03-26T09:14:59.006Z,7.78
2023-03-26T09:17:47.873Z,9.75
2023-03-26T09:20:27.379Z,8.32
2023-03-26T09:23:23.774Z,13.07
2023-03-26T09:26:14.044Z,8.15
2023-03-26T09:28:41.135Z,6.75
2023-03-26T09:31:20.386Z,18.50
2023-03-26T09:33:47.634Z,7.25
2023-03-26T09:36:41.395Z,5.95
2023-03-26T09:39:22.804Z,7.43
2023-03-26T09:42:00.466Z,8.05
2023-03-26T09:44:40.028Z,8.48
2023-03-26T09:47:22.371Z,8.48
2023-03-26T09:50:00.830Z,7.07
2023-03-26T09:52:30.804Z,5.18
2023-03-26T09:55:08.323Z,5.40
2023-03-26T09:57:58.859Z,5.78
2023-03-26T10:00:28.989Z,4.90
2023-03-26T10:03:09.108Z,6.57
2023-03-26T10:05:57.535Z,7.75
2023-03-26T10:08:25.094Z,7.50
2023-03-26T10:11:03.982Z,8.85
2023-03-26T10:13:43.319Z,8.63
2023-03-26T10:16:20.968Z,11.77
2023-03-26T10:19:06.593Z,7.90
2023-03-26T10:21:46.999Z,8.00
2023-03-26T10:24:14.234Z,7.25
2023-03-26T10:27:08.718Z,9.57
2023-03-26T10:29:54.217Z,8.75
2023-03-26T10:32:32.168Z,7.28
2023-03-26T10:35:09.270Z,7.75
2023-03-26T10:37:39.968Z,9.65
2023-03-26T10:40:10.432Z,9.02
2023-03-26T10:42:56.609Z,7.95
2023-03-26T10:45:32.887Z,11.70
2023-03-26T10:48:05.894Z,8.23
2023-03-26T10:50:41.764Z,8.10
2023-03-26T10:53:12.664Z,8.20
2023-03-26T10:55:47.777Z,6.43
2023-03-26T11:01:03.538Z,6.38
2023-03-26T11:03:35.977Z,8.32
2023-03-26T11:06:03.455Z,6.60
2023-03-26T11:08:43.688Z,5.90
2023-03-26T11:11:21.746Z,5.93
2023-03-26T11:13:56.713Z,6.72
2023-03-26T11:16:33.249Z,6.82
2023-03-26T11:19:05.166Z,7.15
2023-03-26T11:21:41.745Z,4.07
2023-03-26T11:24:28.872Z,3.47
2023-03-26T11:27:15.426Z,3.08
2023-03-26T11:32:12.724Z,2.90
2023-03-26T11:34:47.725Z,3.25
2023-03-26T11:37:21.697Z,4.18
2023-03-26T11:39:55.896Z,2.45
2023-03-26T11:42:28.749Z,2.88
2023-03-26T11:45:07.461Z,2.70
2023-03-26T11:47:39.002Z,4.45
2023-03-26T11:50:07.230Z,3.08
2023-03-26T11:52:34.438Z,3.33
2023-03-26T11:55:01.648Z,3.00
2023-03-26T11:57:31.038Z,3.53
2023-03-26T12:00:07.795Z,3.47
2023-03-26T12:02:41.925Z,3.25
2023-03-26T12:05:14.765Z,3.20
2023-03-26T12:07:45.857Z,2.15
2023-03-26T12:10:23.888Z,2.30
2023-03-26T12:12:53.053Z,4.10
2023-03-26T12:15:21.547Z,4.68
2023-03-26T12:17:52.602Z,3.65
2023-03-26T12:20:25.922Z,2.50
2023-03-26T12:23:00.100Z,3.22
2023-03-26T12:25:29.028Z,2.97
2023-03-26T12:28:14.763Z,2.72
2023-03-26T12:30:54.943Z,3.47
2023-03-26T12:33:30.099Z,3.70
2023-03-26T12:35:58.471Z,2.78
2023-03-26T12:38:39.357Z,2.25
2023-03-26T12:42:25.936Z,3.20
2023-03-26T12:44:51.384Z,3.15
2023-03-26T12:49:32.579Z,3.53
2023-03-26T12:52:07.164Z,2.30
2023-03-26T12:54:53.688Z,2.50
2023-03-26T12:57:20.927Z,2.33
2023-03-26T12:59:51.338Z,1.92
2023-03-26T13:02:29.594Z,2.28
2023-03-26T13:05:06.791Z,2.00
2023-03-26T13:07:34.403Z,2.10
2023-03-26T13:10:20.239Z,2.00
2023-03-26T13:12:54.260Z,2.28
2023-03-26T13:15:47.864Z,2.15
2023-03-26T13:18:21.402Z,1.77
2023-03-26T13:20:58.499Z,1.75
2023-03-26T13:23:37.807Z,2.50
2023-03-26T13:26:14.458Z,1.67
2023-03-26T13:29:09.232Z,2.28
2023-03-26T13:31:36.413Z,2.10
2023-03-26T13:34:09.696Z,1.77
2023-03-26T13:36:46.894Z,3.03
2023-03-26T13:39:19.328Z,1.58
2023-03-26T13:42:00.313Z,1.92
2023-03-26T13:44:30.314Z,1.63
2023-03-26T13:47:01.551Z,1.80
2023-03-26T13:49:47.694Z,1.58
2023-03-26T13:52:53.037Z,1.60
2023-03-26T13:55:20.359Z,1.45
2023-03-26T13:57:53.611Z,0.82
2023-03-26T14:00:23.809Z,1.15
2023-03-26T14:02:56.836Z,1.13
2023-03-26T14:05:26.410Z,1.40
2023-03-26T14:08:00.906Z,1.30
2023-03-26T14:10:35.403Z,1.63
2023-03-26T14:13:09.039Z,1.80
2023-03-26T14:15:42.657Z,1.33
2023-03-26T14:18:32.568Z,1.40
2023-03-26T14:21:08.890Z,1.50
2023-03-26T14:23:37.905Z,1.02
2023-03-26T14:26:17.237Z,2.28
2023-03-26T14:28:45.715Z,1.45
2023-03-26T14:39:51.425Z,2.33
2023-03-26T14:42:37.842Z,1.50
2023-03-26T14:45:11.499Z,1.45
2023-03-26T14:47:44.296Z,1.35
2023-03-26T14:50:31.567Z,1.15
2023-03-26T14:53:02.715Z,1.85
2023-03-26T14:55:35.844Z,1.83
2023-03-26T14:58:04.960Z,1.08
2023-03-26T15:01:04.223Z,1.10
2023-03-26T15:06:21.251Z,2.00
2023-03-26T15:08:58.630Z,2.58
2023-03-26T15:11:30.172Z,1.92
2023-03-26T15:14:04.555Z,0.90
2023-03-26T15:16:53.518Z,1.40
2023-03-26T15:19:33.980Z,1.23
2023-03-26T15:25:21.912Z,1.58
2023-03-26T15:27:49.179Z,1.73
2023-03-26T15:30:34.867Z,1.40
2023-03-26T15:33:08.363Z,1.63
2023-03-26T15:35:41.238Z,1.30
2023-03-26T15:38:27.262Z,1.58
2023-03-26T15:41:19.268Z,2.15
2023-03-26T15:44:24.475Z,1.70
2023-03-26T15:49:18.138Z,1.92
2023-03-26T15:52:04.189Z,1.92
2023-03-26T15:54:52.382Z,2.53
2023-03-26T15:57:32.208Z,2.65
2023-03-26T16:00:15.522Z,1.52
2023-03-26T16:02:42.715Z,1.70
2023-03-26T16:05:22.281Z,2.95
2023-03-26T16:08:03.518Z,3.60
2023-03-26T16:15:30.938Z,1.95
2023-03-26T16:18:11.922Z,1.90
2023-03-26T16:20:56.345Z,1.70
2023-03-26T16:23:28.632Z,2.22
2023-03-26T16:26:01.267Z,2.72
2023-03-26T16:28:30.432Z,1.88
2023-03-26T16:31:36.853Z,1.95
2023-03-26T16:34:20.028Z,1.25
2023-03-26T16:36:49.976Z,3.17
2023-03-26T16:39:24.492Z,2.80
2023-03-26T16:42:06.057Z,1.58
2023-03-26T16:44:34.806Z,5.03
2023-03-26T16:47:17.471Z,5.72
2023-03-26T16:49:47.719Z,6.40
2023-03-26T16:52:42.819Z,2.30
2023-03-26T16:57:38.637Z,1.00
2023-03-26T17:00:24.720Z,1.27
2023-03-26T17:03:00.008Z,1.60
2023-03-26T17:05:36.823Z,9.88
2023-03-26T17:08:36.570Z,2.97
2023-03-26T17:11:22.978Z,3.03
2023-03-26T17:14:05.444Z,4.13
2023-03-26T17:16:36.493Z,1.33
2023-03-26T17:19:18.744Z,1.40
2023-03-26T17:21:57.410Z,2.20
2023-03-26T17:24:28.109Z,1.75
2023-03-26T17:27:07.232Z,1.40
2023-03-26T17:29:53.416Z,1.60
2023-03-26T17:32:21.829Z,1.88
2023-03-26T17:34:52.064Z,2.58
2023-03-26T17:37:22.950Z,1.75
2023-03-26T17:39:56.276Z,2.28
2023-03-26T17:42:36.150Z,2.85
2023-03-26T17:45:08.361Z,4.68
2023-03-26T17:47:38.720Z,1.88
2023-03-26T17:50:11.645Z,5.35
2023-03-26T17:52:49.194Z,8.35
2023-03-26T17:55:21.445Z,4.38
2023-03-26T17:57:51.414Z,5.50
2023-03-26T18:00:21.343Z,9.40
2023-03-26T18:02:58.808Z,2.80
2023-03-26T18:05:27.950Z,2.42
2023-03-26T18:10:28.862Z,1.98
2023-03-26T18:13:08.705Z,1.88
2023-03-26T18:15:54.999Z,1.05
2023-03-26T18:18:34.253Z,1.52
2023-03-26T18:21:03.629Z,2.75
2023-03-26T18:23:36.774Z,1.25
2023-03-26T18:26:14.617Z,1.15
2023-03-26T18:28:43.185Z,1.02
2023-03-26T18:31:20.892Z,1.25
2023-03-26T18:33:49.467Z,1.10
2023-03-26T18:36:18.656Z,1.45
2023-03-26T18:38:46.840Z,1.55
2023-03-26T18:41:27.376Z,1.85
2023-03-26T18:43:55.579Z,1.65
2023-03-26T18:46:23.935Z,1.90
2023-03-26T18:48:51.286Z,2.55
2023-03-26T18:51:23.082Z,0.95
2023-03-26T18:53:53.218Z,1.65
2023-03-26T18:56:27.527Z,1.60
2023-03-26T18:58:57.640Z,2.75
2023-03-26T19:01:30.677Z,0.85
2023-03-26T19:04:05.725Z,1.10
2023-03-26T19:06:38.361Z,1.00
2023-03-26T19:09:13.507Z,0.95
2023-03-26T19:11:49.389Z,1.70
2023-03-26T19:14:17.970Z,1.92
2023-03-26T19:16:56.448Z,1.02
2023-03-26T19:19:26.495Z,1.10
2023-03-26T19:21:53.735Z,1.60
2023-03-26T19:24:21.729Z,0.98
2023-03-26T19:26:49.056Z,1.10
2023-03-26T19:29:18.582Z,1.50
2023-03-26T19:31:51.312Z,1.25
2023-03-26T19:34:48.166Z,1.42
2023-03-26T19:37:26.399Z,1.90
2023-03-26T19:39:54.926Z,0.70
2023-03-26T19:42:23.379Z,1.30
2023-03-26T19:44:51.872Z,1.80
2023-03-26T19:47:50.109Z,1.30
2023-03-26T19:50:26.111Z,1.48
2023-03-26T19:53:16.831Z,1.27
2023-03-26T19:55:53.322Z,0.88
2023-03-26T19:58:21.317Z,1.65
2023-03-26T20:00:49.963Z,0.80
2023-03-26T20:03:20.086Z,1.77
2023-03-26T20:05:47.340Z,1.40
2023-03-26T20:08:16.038Z,1.10
2023-03-26T20:10:43.426Z,1.75
2023-03-26T20:13:16.434Z,1.88
2023-03-26T20:15:48.688Z,2.33
2023-03-26T20:18:36.808Z,1.10
2023-03-26T20:21:10.278Z,1.45
2023-03-26T20:23:37.483Z,1.55
2023-03-26T20:26:06.031Z,1.27
2023-03-26T20:28:42.321Z,2.88
2023-03-26T20:31:19.580Z,1.50
2023-03-26T20:33:47.996Z,1.52
2023-03-26T20:36:15.282Z,0.90
2023-03-26T20:39:02.329Z,1.45
2023-03-26T20:41:31.775Z,1.05
2023-03-26T20:43:58.900Z,1.55
2023-03-26T20:46:30.819Z,1.80
2023-03-26T20:48:59.974Z,2.00
2023-03-26T20:51:30.170Z,3.63
2023-03-26T20:53:57.359Z,0.60
2023-03-26T20:56:24.572Z,2.88
2023-03-26T20:59:09.903Z,2.00
2023-03-26T21:01:39.041Z,1.60
2023-03-26T21:04:07.078Z,1.90
2023-03-26T21:06:34.357Z,1.67
2023-03-26T21:09:01.697Z,1.73
2023-03-26T21:11:34.765Z,0.90
2023-03-26T21:14:05.429Z,1.65
2023-03-26T21:16:32.977Z,2.08
2023-03-26T21:19:00.833Z,2.47
2023-03-26T21:21:37.523Z,1.63
2023-03-26T21:24:13.096Z,1.15
2023-03-26T21:26:47.740Z,1.48
2023-03-26T21:29:15.012Z,0.55
2023-03-26T21:31:42.424Z,1.20
2023-03-26T21:34:12.468Z,2.08
2023-03-26T21:36:40.841Z,2.03
2023-03-26T21:39:08.332Z,2.30
2023-03-26T21:41:43.712Z,1.63
2023-03-26T21:46:38.255Z,1.98
2023-03-26T21:49:06.019Z,1.30
2023-03-26T21:51:33.955Z,1.40
2023-03-26T21:54:03.162Z,1.50
2023-03-26T21:59:07.864Z,1.38
2023-03-26T22:01:51.419Z,1.35
2023-03-26T22:04:30.799Z,1.60
2023-03-26T22:07:18.199Z,1.58
2023-03-26T22:09:45.539Z,1.40
2023-03-26T22:12:12.818Z,1.50
2023-03-26T22:14:40.599Z,1.10
2023-03-26T22:17:07.924Z,0.82
2023-03-26T22:19:35.888Z,0.70
2023-03-26T22:22:03.543Z,1.10
2023-03-26T22:24:30.685Z,1.33
2023-03-26T22:26:57.925Z,1.27
2023-03-26T22:29:25.128Z,1.00
2023-03-26T22:31:52.421Z,1.08
2023-03-26T22:34:19.895Z,0.85
2023-03-26T22:36:46.969Z,0.95
2023-03-26T22:39:14.322Z,0.85
2023-03-26T22:41:41.608Z,1.10
2023-03-26T22:44:19.796Z,2.05
2023-03-26T22:46:51.715Z,1.95
2023-03-26T22:49:19.664Z,1.30
2023-03-26T22:51:46.926Z,1.13
2023-03-26T22:54:14.607Z,1.23
2023-03-26T22:56:41.786Z,0.75
2023-03-26T22:59:08.930Z,1.23
2023-03-26T23:01:36.759Z,1.38
2023-03-26T23:04:03.948Z,1.20
2023-03-26T23:06:31.696Z,1.48
2023-03-26T23:08:58.982Z,1.10
2023-03-26T23:11:26.680Z,1.20
2023-03-26T23:13:54.020Z,1.27
2023-03-26T23:16:21.697Z,1.10
2023-03-26T23:18:49.063Z,1.20
2023-03-26T23:21:18.472Z,1.00
2023-03-26T23:23:46.177Z,0.93
2023-03-26T23:26:14.514Z,1.35
2023-03-26T23:28:43.254Z,1.52
2023-03-26T23:31:12.258Z,0.93
2023-03-26T23:33:46.604Z,1.88
2023-03-26T23:36:18.591Z,1.02
2023-03-26T23:38:47.087Z,1.10
2023-03-26T23:41:15.302Z,1.20
2023-03-26T23:43:54.740Z,0.98
2023-03-26T23:46:30.837Z,2.08
2023-03-26T23:48:59.964Z,1.00
2023-03-26T23:51:27.410Z,1.83
2023-03-26T23:53:54.816Z,1.35
2023-03-26T23:56:22.155Z,1.17
2023-03-26T23:58:49.513Z,1.48
